Time;durP1;ratioP1;P1;durP2;ratioP2;P2;SDS_P1;SDS_P2;PMS_P1;PMS_P2;Temp;Humidity;BMP_temperature;BMP_pressure;BME280_temperature;BME280_humidity;BME280_pressure;Samples;Min_cycle;Max_cycle;Signal;HPM_P1;HPM_P2
2021/10/22 00:01:10;;;;;;;10.60;2.63;;;;;;;;;;10419858;28;20033;-86
2021/10/22 00:06:10;;;;;;;11.75;2.80;;;;;;;;;;10421473;28;20658;-85
2021/10/22 00:11:11;;;;;;;4.93;2.13;;;;;;;;;;10421758;28;20540;-85
2021/10/22 00:16:11;;;;;;;5.53;2.92;;;;;;;;;;10422446;28;20105;-85
2021/10/22 00:21:12;;;;;;;7.30;2.17;;;;;;;;;;10420073;28;20484;-86
2021/10/22 00:26:12;;;;;;;9.52;3.53;;;;;;;;;;10418787;28;20087;-86
2021/10/22 00:31:12;;;;;;;3.70;1.83;;;;;;;;;;10419343;28;20565;-85
2021/10/22 00:36:13;;;;;;;10.75;2.15;;;;;;;;;;10419340;28;20033;-85
2021/10/22 00:41:13;;;;;;;5.55;2.03;;;;;;;;;;10418799;28;20492;-85
2021/10/22 00:46:14;;;;;;;5.75;2.20;;;;;;;;;;10421156;28;20106;-85
2021/10/22 00:51:14;;;;;;;5.22;3.22;;;;;;;;;;10434623;28;20452;-85
2021/10/22 00:56:14;;;;;;;12.27;2.63;;;;;;;;;;10417425;28;20112;-87
2021/10/22 01:01:15;;;;;;;8.98;2.50;;;;;;;;;;10403370;28;20036;-86
2021/10/22 01:06:15;;;;;;;6.57;2.93;;;;;;;;;;10419467;28;20851;-85
2021/10/22 01:11:15;;;;;;;14.52;3.83;;;;;;;;;;10419449;28;20619;-85
2021/10/22 01:16:15;;;;;;;10.93;2.78;;;;;;;;;;10421213;28;20465;-83
2021/10/22 01:21:15;;;;;;;5.50;3.70;;;;;;;;;;10420809;28;20489;-85
2021/10/22 01:26:18;;;;;;;9.90;2.58;;;;;;;;;;10419560;28;20057;-84
2021/10/22 01:31:18;;;;;;;4.32;2.17;;;;;;;;;;10419766;28;20029;-84
2021/10/22 01:36:18;;;;;;;8.30;3.70;;;;;;;;;;10422581;28;20469;-84
2021/10/22 01:41:19;;;;;;;14.75;4.30;;;;;;;;;;10414621;28;20036;-84
2021/10/22 01:46:19;;;;;;;10.30;3.03;;;;;;;;;;10475621;28;20030;-85
2021/10/22 01:51:20;;;;;;;11.57;3.78;;;;;;;;;;10431366;28;20036;-84
2021/10/22 01:56:20;;;;;;;17.52;4.10;;;;;;;;;;10418439;28;20064;-83
2021/10/22 02:01:20;;;;;;;8.05;2.85;;;;;;;;;;10424822;28;20028;-84
2021/10/22 02:06:20;;;;;;;9.70;2.70;;;;;;;;;;10415624;28;20060;-85
2021/10/22 02:11:21;;;;;;;2.80;2.08;;;;;;;;;;10415872;28;20053;-85
2021/10/22 02:16:21;;;;;;;25.77;5.15;;;;;;;;;;10415330;28;20021;-85
2021/10/22 02:21:21;;;;;;;11.45;2.67;;;;;;;;;;10417603;28;20120;-85
2021/10/22 02:26:21;;;;;;;8.88;3.28;;;;;;;;;;10415624;28;20493;-85
2021/10/22 02:31:22;;;;;;;2.35;2.10;;;;;;;;;;10415042;28;20047;-84
2021/10/22 02:36:22;;;;;;;4.53;2.45;;;;;;;;;;10415330;28;20095;-85
2021/10/22 02:41:22;;;;;;;7.32;1.80;;;;;;;;;;10415971;28;20040;-85
2021/10/22 02:46:22;;;;;;;5.10;2.55;;;;;;;;;;10416007;28;20112;-84
2021/10/22 02:51:23;;;;;;;5.63;2.88;;;;;;;;;;10413576;28;20037;-84
2021/10/22 02:56:23;;;;;;;8.20;2.17;;;;;;;;;;10413963;28;20104;-85
2021/10/22 03:01:23;;;;;;;2.78;1.90;;;;;;;;;;10417932;28;20025;-85
2021/10/22 03:06:25;;;;;;;8.07;2.25;;;;;;;;;;10418336;28;20056;-85
2021/10/22 03:11:26;;;;;;;8.52;3.20;;;;;;;;;;10415450;28;20490;-84
2021/10/22 03:16:27;;;;;;;16.30;3.03;;;;;;;;;;10422420;28;20037;-85
2021/10/22 03:21:27;;;;;;;9.75;2.47;;;;;;;;;;10415640;28;20029;-84
2021/10/22 03:26:27;;;;;;;11.68;3.42;;;;;;;;;;10414184;28;20149;-84
2021/10/22 03:31:28;;;;;;;5.90;3.05;;;;;;;;;;10419331;28;20167;-84
2021/10/22 03:36:28;;;;;;;8.45;2.28;;;;;;;;;;10424951;28;20021;-84
2021/10/22 03:41:28;;;;;;;11.70;3.17;;;;;;;;;;10422235;28;20120;-83
2021/10/22 03:46:28;;;;;;;8.60;5.35;;;;;;;;;;10420027;28;20469;-83
2021/10/22 03:51:29;;;;;;;12.47;3.77;;;;;;;;;;10420919;28;20044;-83
2021/10/22 03:56:29;;;;;;;6.43;1.88;;;;;;;;;;10419782;28;20278;-83
2021/10/22 04:01:29;;;;;;;9.93;3.40;;;;;;;;;;10420874;28;20367;-83
2021/10/22 04:06:30;;;;;;;11.10;2.65;;;;;;;;;;10420190;28;20026;-83
2021/10/22 04:11:30;;;;;;;13.27;3.55;;;;;;;;;;10420272;28;20170;-83
2021/10/22 04:16:30;;;;;;;16.23;3.53;;;;;;;;;;10421469;28;20532;-85
2021/10/22 04:21:31;;;;;;;11.98;2.55;;;;;;;;;;10420986;28;20026;-83
2021/10/22 04:26:31;;;;;;;2.85;1.73;;;;;;;;;;10421623;28;20049;-84
2021/10/22 04:31:31;;;;;;;7.40;2.50;;;;;;;;;;10422479;28;20446;-84
2021/10/22 04:36:31;;;;;;;5.88;1.75;;;;;;;;;;10419762;28;20105;-81
2021/10/22 04:41:32;;;;;;;18.85;5.18;;;;;;;;;;10420839;28;20094;-81
2021/10/22 04:46:32;;;;;;;6.47;2.05;;;;;;;;;;10419232;28;20044;-81
2021/10/22 04:51:32;;;;;;;4.15;2.22;;;;;;;;;;10419184;28;20041;-83
2021/10/22 04:56:32;;;;;;;9.55;1.50;;;;;;;;;;10400958;28;20038;-81
2021/10/22 05:01:32;;;;;;;5.28;1.60;;;;;;;;;;10418517;28;20056;-82
2021/10/22 05:06:33;;;;;;;13.43;2.65;;;;;;;;;;10420469;28;20363;-83
2021/10/22 05:11:34;;;;;;;4.88;2.58;;;;;;;;;;10420326;28;20282;-84
2021/10/22 05:16:34;;;;;;;5.15;2.97;;;;;;;;;;10422492;28;20037;-86
2021/10/22 05:21:34;;;;;;;3.28;2.65;;;;;;;;;;10406942;28;20034;-83
2021/10/22 05:26:35;;;;;;;6.97;3.28;;;;;;;;;;10422426;28;20081;-81
2021/10/22 05:31:37;;;;;;;12.35;3.63;;;;;;;;;;10423382;28;20029;-83
2021/10/22 05:36:37;;;;;;;4.40;2.67;;;;;;;;;;10420197;28;20061;-82
2021/10/22 05:41:37;;;;;;;6.13;2.55;;;;;;;;;;10420187;28;20022;-82
2021/10/22 05:46:37;;;;;;;15.35;3.25;;;;;;;;;;10419735;28;20030;-81
2021/10/22 05:51:38;;;;;;;16.67;3.38;;;;;;;;;;10415860;28;20057;-82
2021/10/22 05:56:38;;;;;;;10.57;4.18;;;;;;;;;;10416108;28;20029;-82
2021/10/22 06:01:39;;;;;;;5.20;3.55;;;;;;;;;;10416669;28;20477;-81
2021/10/22 06:06:39;;;;;;;8.93;3.10;;;;;;;;;;10415763;28;20075;-82
2021/10/22 06:11:39;;;;;;;19.95;3.97;;;;;;;;;;10415233;28;20029;-81
2021/10/22 06:16:40;;;;;;;12.75;3.03;;;;;;;;;;10415479;28;20115;-82
2021/10/22 06:21:54;;;;;;;2.15;2.05;;;;;;;;;;10415332;28;20068;-82
2021/10/22 06:26:54;;;;;;;17.50;2.70;;;;;;;;;;10414272;28;20065;-83
2021/10/22 06:31:55;;;;;;;17.60;2.83;;;;;;;;;;10397766;28;20033;-83
2021/10/22 06:36:56;;;;;;;8.45;3.13;;;;;;;;;;10414993;28;20203;-82
2021/10/22 06:41:56;;;;;;;5.78;3.38;;;;;;;;;;10414928;28;20039;-83
2021/10/22 06:46:57;;;;;;;6.47;3.47;;;;;;;;;;10414984;28;20117;-83
2021/10/22 06:51:57;;;;;;;6.55;2.65;;;;;;;;;;10414013;28;20033;-83
2021/10/22 06:56:57;;;;;;;2.55;1.90;;;;;;;;;;10416690;28;20433;-83
2021/10/22 07:01:57;;;;;;;6.43;3.78;;;;;;;;;;10413915;28;20108;-83
2021/10/22 07:12:16;;;;;;;9.20;2.95;;;;;;;;;;10423854;28;20120;-83
2021/10/22 07:17:16;;;;;;;6.13;2.50;;;;;;;;;;10421275;28;20537;-83
2021/10/22 07:22:19;;;;;;;11.48;3.53;;;;;;;;;;10421673;28;20803;-83
2021/10/22 07:27:19;;;;;;;11.23;2.70;;;;;;;;;;10422783;28;20459;-83
2021/10/22 07:32:20;;;;;;;12.77;4.10;;;;;;;;;;10424869;28;20078;-84
2021/10/22 07:37:20;;;;;;;4.93;2.42;;;;;;;;;;10425320;28;20025;-84
2021/10/22 07:42:21;;;;;;;4.50;3.15;;;;;;;;;;10427368;28;20436;-83
2021/10/22 07:47:21;;;;;;;18.25;4.22;;;;;;;;;;10423151;28;20029;-83
2021/10/22 07:52:23;;;;;;;21.52;4.88;;;;;;;;;;10423714;28;20034;-85
2021/10/22 07:57:23;;;;;;;9.05;3.13;;;;;;;;;;10426457;28;20025;-83
2021/10/22 08:02:24;;;;;;;5.30;3.83;;;;;;;;;;10443332;28;20104;-84
2021/10/22 08:07:29;;;;;;;13.73;3.67;;;;;;;;;;10453645;28;20290;-84
2021/10/22 08:12:29;;;;;;;20.58;4.95;;;;;;;;;;10445546;28;20025;-85
2021/10/22 08:17:29;;;;;;;13.20;3.67;;;;;;;;;;10446888;28;20060;-84
2021/10/22 08:22:31;;;;;;;18.60;4.78;;;;;;;;;;10427811;28;20037;-84
2021/10/22 08:27:32;;;;;;;8.57;2.92;;;;;;;;;;10424511;28;20107;-84
2021/10/22 08:32:32;;;;;;;4.40;2.95;;;;;;;;;;10429068;28;20044;-84
2021/10/22 08:37:32;;;;;;;9.52;2.63;;;;;;;;;;10430128;28;20025;-84
2021/10/22 08:42:33;;;;;;;8.95;3.17;;;;;;;;;;10422549;28;20033;-85
2021/10/22 08:47:33;;;;;;;4.67;2.47;;;;;;;;;;10406685;28;20029;-84
2021/10/22 08:52:33;;;;;;;14.75;3.25;;;;;;;;;;10421850;28;20282;-85
2021/10/22 08:57:37;;;;;;;14.65;3.33;;;;;;;;;;10403037;28;20389;-85
2021/10/22 09:02:37;;;;;;;6.15;2.58;;;;;;;;;;10420188;28;20076;-85
2021/10/22 09:07:58;;;;;;;8.65;2.00;;;;;;;;;;10419962;28;20033;-84
2021/10/22 09:13:03;;;;;;;3.80;2.70;;;;;;;;;;10420645;28;20017;-85
2021/10/22 09:18:07;;;;;;;9.90;2.55;;;;;;;;;;10419933;28;20036;-85
2021/10/22 09:23:07;;;;;;;5.35;3.03;;;;;;;;;;10425075;28;20052;-85
2021/10/22 09:28:11;;;;;;;4.55;3.13;;;;;;;;;;10419057;28;20037;-85
2021/10/22 09:33:11;;;;;;;20.75;3.75;;;;;;;;;;10420393;28;20465;-85
2021/10/22 09:38:12;;;;;;;3.72;2.30;;;;;;;;;;10420712;28;20030;-85
2021/10/22 09:43:14;;;;;;;16.98;2.30;;;;;;;;;;10418477;28;20029;-85
2021/10/22 09:48:43;;;;;;;13.57;2.88;;;;;;;;;;10418705;28;20358;-85
2021/10/22 09:53:45;;;;;;;27.83;4.18;;;;;;;;;;10418443;28;20041;-85
2021/10/22 09:58:55;;;;;;;7.57;3.58;;;;;;;;;;10418817;28;20022;-85
2021/10/22 10:03:58;;;;;;;5.82;2.75;;;;;;;;;;10419665;28;20033;-85
2021/10/22 10:08:58;;;;;;;22.77;3.60;;;;;;;;;;10419469;28;20029;-85
2021/10/22 10:14:00;;;;;;;22.57;3.80;;;;;;;;;;10423384;28;20469;-85
2021/10/22 10:19:03;;;;;;;12.13;2.97;;;;;;;;;;10401576;28;20271;-85
2021/10/22 10:24:04;;;;;;;5.70;3.10;;;;;;;;;;10417087;28;20056;-84
2021/10/22 10:29:05;;;;;;;6.85;3.17;;;;;;;;;;10416553;28;20018;-85
2021/10/22 10:34:24;;;;;;;6.28;3.20;;;;;;;;;;10425346;28;20037;-85
2021/10/22 10:39:36;;;;;;;19.38;2.83;;;;;;;;;;10417173;28;20026;-86
2021/10/22 10:44:36;;;;;;;4.22;3.42;;;;;;;;;;10424217;28;20025;-85
2021/10/22 10:49:46;;;;;;;4.72;2.03;;;;;;;;;;10423197;28;20563;-85
2021/10/22 10:55:06;;;;;;;9.20;2.60;;;;;;;;;;10422954;28;20030;-85
2021/10/22 11:00:10;;;;;;;16.75;3.78;;;;;;;;;;10423631;28;20025;-85
2021/10/22 11:05:11;;;;;;;16.50;3.22;;;;;;;;;;10424576;28;20458;-85
2021/10/22 11:10:31;;;;;;;6.93;3.47;;;;;;;;;;10424610;28;20056;-85
2021/10/22 11:15:35;;;;;;;7.75;2.33;;;;;;;;;;10423161;28;20259;-85
2021/10/22 11:20:35;;;;;;;13.05;3.03;;;;;;;;;;10422537;28;20032;-86
2021/10/22 11:25:35;;;;;;;9.18;2.60;;;;;;;;;;10421612;28;20069;-85
2021/10/22 11:30:36;;;;;;;8.30;3.50;;;;;;;;;;10422818;28;20029;-85
2021/10/22 11:35:36;;;;;;;5.72;2.30;;;;;;;;;;10424190;28;20033;-85
2021/10/22 11:40:38;;;;;;;10.68;2.75;;;;;;;;;;10424481;28;20461;-86
2021/10/22 11:45:38;;;;;;;3.90;2.53;;;;;;;;;;10430681;28;20548;-85
2021/10/22 11:50:38;;;;;;;8.95;3.70;;;;;;;;;;10424557;28;20029;-85
2021/10/22 11:55:42;;;;;;;2.40;2.13;;;;;;;;;;10421368;28;20044;-85
2021/10/22 12:00:53;;;;;;;9.30;3.30;;;;;;;;;;10420262;28;20040;-85
2021/10/22 12:05:55;;;;;;;8.68;3.42;;;;;;;;;;10421021;28;20440;-85
2021/10/22 12:10:58;;;;;;;1.52;1.08;;;;;;;;;;10421163;28;20037;-85
2021/10/22 12:16:11;;;;;;;13.65;2.70;;;;;;;;;;10420231;28;20025;-85
2021/10/22 12:21:11;;;;;;;3.72;1.80;;;;;;;;;;10420171;28;20021;-85
2021/10/22 12:26:19;;;;;;;2.88;2.50;;;;;;;;;;10423746;28;20119;-86
2021/10/22 12:31:27;;;;;;;7.05;2.95;;;;;;;;;;10423795;28;20052;-85
2021/10/22 12:36:28;;;;;;;6.85;3.15;;;;;;;;;;10442603;28;20009;-85
2021/10/22 12:41:28;;;;;;;11.10;2.28;;;;;;;;;;10421504;28;20124;-85
2021/10/22 12:46:28;;;;;;;1.98;1.88;;;;;;;;;;10427807;28;20065;-85
2021/10/22 12:51:28;;;;;;;7.22;2.58;;;;;;;;;;10423653;28;20038;-85
2021/10/22 12:56:29;;;;;;;5.50;1.73;;;;;;;;;;10420270;28;20033;-85
2021/10/22 13:01:31;;;;;;;9.02;2.40;;;;;;;;;;10429357;28;20117;-85
2021/10/22 13:06:43;;;;;;;8.73;3.30;;;;;;;;;;10417596;28;20025;-84
2021/10/22 13:22:05;;;;;;;4.15;2.05;;;;;;;;;;10417492;28;20118;-85
2021/10/22 13:27:06;;;;;;;10.20;2.83;;;;;;;;;;10418302;28;20144;-85
2021/10/22 13:32:06;;;;;;;6.50;3.38;;;;;;;;;;10426177;28;20013;-85
2021/10/22 13:37:06;;;;;;;20.33;1.60;;;;;;;;;;10428950;28;20035;-85
2021/10/22 13:42:06;;;;;;;3.72;1.92;;;;;;;;;;10432131;28;20033;-85
2021/10/22 13:47:09;;;;;;;3.67;1.90;;;;;;;;;;10441531;28;20029;-84
2021/10/22 13:52:10;;;;;;;19.77;4.10;;;;;;;;;;10447675;28;20053;-85
2021/10/22 13:57:10;;;;;;;8.40;2.97;;;;;;;;;;10441969;28;20030;-84
2021/10/22 14:02:10;;;;;;;4.05;2.45;;;;;;;;;;10440944;28;20032;-81
2021/10/22 14:07:10;;;;;;;5.35;3.08;;;;;;;;;;10441343;28;20085;-81
2021/10/22 14:12:37;;;;;;;5.85;2.40;;;;;;;;;;10432830;28;20036;-79
2021/10/22 14:33:21;;;;;;;4.65;3.15;;;;;;;;;;10415895;28;20394;-82
2021/10/22 14:38:21;;;;;;;10.18;2.92;;;;;;;;;;10415222;28;20029;-80
2021/10/22 14:43:35;;;;;;;28.58;3.67;;;;;;;;;;10414578;28;20034;-80
2021/10/22 14:48:40;;;;;;;4.63;2.63;;;;;;;;;;10415220;28;20033;-80
2021/10/22 14:58:41;;;;;;;6.85;2.60;;;;;;;;;;10415324;28;20124;-80
2021/10/22 15:03:41;;;;;;;7.95;2.55;;;;;;;;;;10414605;28;20042;-80
2021/10/22 15:08:41;;;;;;;7.95;3.05;;;;;;;;;;10413691;28;20453;-80
2021/10/22 15:13:41;;;;;;;7.97;2.05;;;;;;;;;;10414568;28;20197;-80
2021/10/22 15:18:42;;;;;;;10.68;2.38;;;;;;;;;;10413233;28;20036;-81
2021/10/22 15:23:42;;;;;;;6.93;2.78;;;;;;;;;;10412683;28;20058;-80
2021/10/22 15:28:43;;;;;;;6.03;1.85;;;;;;;;;;10420631;28;20040;-81
2021/10/22 15:33:43;;;;;;;19.35;3.17;;;;;;;;;;10420454;28;20110;-80
2021/10/22 15:38:44;;;;;;;8.85;3.63;;;;;;;;;;10422791;28;20033;-80
2021/10/22 15:43:44;;;;;;;6.85;3.25;;;;;;;;;;10423108;28;20124;-81
2021/10/22 15:48:44;;;;;;;8.60;3.22;;;;;;;;;;10423052;28;20029;-80
2021/10/22 15:53:44;;;;;;;8.25;2.97;;;;;;;;;;10420690;28;20523;-80
2021/10/22 15:58:45;;;;;;;6.37;3.17;;;;;;;;;;10420512;28;20470;-80
2021/10/22 16:03:46;;;;;;;9.23;3.42;;;;;;;;;;10420505;28;20282;-80
2021/10/22 16:08:56;;;;;;;9.93;2.17;;;;;;;;;;10420788;28;20033;-80
2021/10/22 16:19:03;;;;;;;5.35;3.28;;;;;;;;;;10419839;28;20034;-80
2021/10/22 16:24:04;;;;;;;4.13;2.05;;;;;;;;;;10418756;28;20493;-80
2021/10/22 16:29:04;;;;;;;9.48;3.00;;;;;;;;;;10418824;28;20033;-80
2021/10/22 16:39:23;;;;;;;3.08;2.45;;;;;;;;;;10423743;28;20263;-81
2021/10/22 16:44:24;;;;;;;18.05;3.08;;;;;;;;;;10419568;28;20033;-80
2021/10/22 16:49:24;;;;;;;7.27;2.67;;;;;;;;;;10417379;28;20029;-80
2021/10/22 16:54:24;;;;;;;2.58;2.10;;;;;;;;;;10418608;28;20279;-80
2021/10/22 16:59:25;;;;;;;13.07;3.38;;;;;;;;;;10418271;28;20041;-80
2021/10/22 17:04:29;;;;;;;13.10;4.10;;;;;;;;;;10418061;28;20459;-80
2021/10/22 17:09:29;;;;;;;14.40;4.88;;;;;;;;;;10419950;28;20091;-80
2021/10/22 17:14:30;;;;;;;24.60;5.47;;;;;;;;;;10416738;28;20084;-80
2021/10/22 17:19:32;;;;;;;11.95;3.95;;;;;;;;;;10419939;28;20481;-80
2021/10/22 17:24:32;;;;;;;13.45;3.22;;;;;;;;;;10419115;28;20050;-80
2021/10/22 17:29:34;;;;;;;12.55;3.42;;;;;;;;;;10419782;28;20109;-79
2021/10/22 17:34:34;;;;;;;14.48;3.60;;;;;;;;;;10420587;28;20018;-80
2021/10/22 17:39:35;;;;;;;20.52;3.17;;;;;;;;;;10434812;28;20030;-78
2021/10/22 17:44:35;;;;;;;16.77;3.90;;;;;;;;;;10445480;28;20021;-80
2021/10/22 17:49:35;;;;;;;6.18;3.35;;;;;;;;;;10420210;28;20041;-80
2021/10/22 17:54:36;;;;;;;3.80;3.15;;;;;;;;;;10418077;28;20402;-80
2021/10/22 17:59:36;;;;;;;11.77;3.08;;;;;;;;;;10417783;28;20037;-79
2021/10/22 18:04:36;;;;;;;11.63;2.92;;;;;;;;;;10418655;28;20362;-80
2021/10/22 18:09:36;;;;;;;19.23;3.28;;;;;;;;;;10417186;28;20484;-81
2021/10/22 18:14:37;;;;;;;5.15;2.50;;;;;;;;;;10415519;28;20045;-79
2021/10/22 18:19:37;;;;;;;7.80;3.13;;;;;;;;;;10414941;28;20104;-80
2021/10/22 18:24:38;;;;;;;8.85;3.13;;;;;;;;;;10413381;28;20119;-80
2021/10/22 18:29:43;;;;;;;15.57;4.80;;;;;;;;;;10415249;28;20021;-79
2021/10/22 18:34:43;;;;;;;13.13;4.25;;;;;;;;;;10415425;28;20033;-81
2021/10/22 18:39:44;;;;;;;10.68;4.90;;;;;;;;;;10417358;28;20385;-80
2021/10/22 18:44:44;;;;;;;4.85;2.65;;;;;;;;;;10416824;28;20029;-80
2021/10/22 18:49:45;;;;;;;14.02;4.70;;;;;;;;;;10416881;28;20072;-79
2021/10/22 18:54:46;;;;;;;9.23;2.83;;;;;;;;;;10416378;28;20503;-79
2021/10/22 18:59:46;;;;;;;15.35;4.40;;;;;;;;;;10416196;28;20124;-80
2021/10/22 19:05:09;;;;;;;12.20;3.20;;;;;;;;;;10425586;28;20499;-80
2021/10/22 19:10:07;;;;;;;17.13;5.63;;;;;;;;;;10424373;28;20041;-80
2021/10/22 19:15:10;;;;;;;8.35;2.53;;;;;;;;;;10423190;28;20047;-80
2021/10/22 19:20:10;;;;;;;9.43;3.10;;;;;;;;;;10424432;28;20036;-79
2021/10/22 19:25:11;;;;;;;2.50;1.92;;;;;;;;;;10423184;28;20054;-80
2021/10/22 19:30:11;;;;;;;7.38;3.42;;;;;;;;;;10423599;28;20056;-79
2021/10/22 19:35:11;;;;;;;11.65;4.10;;;;;;;;;;10423612;28;20112;-80
2021/10/22 19:40:11;;;;;;;13.60;4.88;;;;;;;;;;10423728;28;20029;-79
2021/10/22 19:45:12;;;;;;;12.90;6.03;;;;;;;;;;10423356;28;20040;-79
2021/10/22 19:50:13;;;;;;;12.82;5.22;;;;;;;;;;10421979;28;20037;-80
2021/10/22 19:55:13;;;;;;;14.25;5.13;;;;;;;;;;10421046;28;20033;-80
2021/10/22 20:00:14;;;;;;;9.50;4.05;;;;;;;;;;10422812;28;20533;-80
2021/10/22 20:05:14;;;;;;;8.07;2.90;;;;;;;;;;10405921;28;20057;-79
2021/10/22 20:10:15;;;;;;;10.55;2.97;;;;;;;;;;10421934;28;20094;-80
2021/10/22 20:15:16;;;;;;;6.57;3.55;;;;;;;;;;10421938;28;20026;-80
2021/10/22 20:20:17;;;;;;;14.02;2.83;;;;;;;;;;10422461;28;20040;-80
2021/10/22 20:25:17;;;;;;;9.43;4.15;;;;;;;;;;10420140;28;20057;-80
2021/10/22 20:30:18;;;;;;;18.63;3.38;;;;;;;;;;10421419;28;20025;-80
2021/10/22 20:35:18;;;;;;;6.13;3.05;;;;;;;;;;10421324;28;20531;-81
2021/10/22 20:40:19;;;;;;;14.10;3.88;;;;;;;;;;10420374;28;20044;-79
2021/10/22 20:45:21;;;;;;;10.88;3.80;;;;;;;;;;10420592;28;20044;-81
2021/10/22 21:00:59;;;;;;;13.02;4.38;;;;;;;;;;10420468;28;20033;-79
2021/10/22 21:05:59;;;;;;;13.57;4.15;;;;;;;;;;10420183;28;20021;-80
2021/10/22 21:10:59;;;;;;;12.48;4.25;;;;;;;;;;10419151;28;20037;-80
2021/10/22 21:16:00;;;;;;;7.45;3.22;;;;;;;;;;10419957;28;20088;-79
2021/10/22 21:21:00;;;;;;;10.90;4.57;;;;;;;;;;10419259;28;20362;-79
2021/10/22 21:26:00;;;;;;;11.07;4.40;;;;;;;;;;10417476;28;20520;-79
2021/10/22 21:31:10;;;;;;;12.57;5.25;;;;;;;;;;10402010;28;20033;-79
2021/10/22 21:36:10;;;;;;;17.48;4.75;;;;;;;;;;10418753;28;20025;-79
2021/10/22 21:41:10;;;;;;;12.90;4.55;;;;;;;;;;10416608;28;20540;-80
2021/10/22 21:46:10;;;;;;;12.32;2.55;;;;;;;;;;10420036;28;20432;-79
2021/10/22 21:51:12;;;;;;;9.98;3.63;;;;;;;;;;10414730;28;20032;-78
2021/10/22 21:56:13;;;;;;;8.75;3.33;;;;;;;;;;10415740;28;20163;-79
2021/10/22 22:01:13;;;;;;;21.70;4.38;;;;;;;;;;10415584;28;20048;-79
2021/10/22 22:06:13;;;;;;;10.40;2.65;;;;;;;;;;10415075;28;20020;-78
2021/10/22 22:11:13;;;;;;;7.10;2.63;;;;;;;;;;10414521;28;20037;-78
2021/10/22 22:16:13;;;;;;;10.07;2.45;;;;;;;;;;10414030;28;20492;-80
2021/10/22 22:21:14;;;;;;;11.45;3.83;;;;;;;;;;10414874;28;20109;-79
2021/10/22 22:26:14;;;;;;;4.57;2.70;;;;;;;;;;10415491;28;20141;-79
2021/10/22 22:31:14;;;;;;;7.38;2.03;;;;;;;;;;10416506;28;20484;-79
2021/10/22 22:36:14;;;;;;;15.65;3.83;;;;;;;;;;10416275;28;20512;-80
2021/10/22 22:41:14;;;;;;;11.65;2.83;;;;;;;;;;10416869;28;20466;-79
2021/10/22 22:46:15;;;;;;;6.18;3.08;;;;;;;;;;10416991;28;20030;-79
2021/10/22 22:51:15;;;;;;;2.40;2.20;;;;;;;;;;10417026;28;20472;-79
2021/10/22 22:56:15;;;;;;;6.50;2.25;;;;;;;;;;10416860;28;20053;-79
2021/10/22 23:01:15;;;;;;;11.68;1.92;;;;;;;;;;10417444;28;20098;-79
2021/10/22 23:06:15;;;;;;;2.33;2.15;;;;;;;;;;10416987;28;20116;-79
2021/10/22 23:11:16;;;;;;;4.70;2.60;;;;;;;;;;10416388;28;20384;-79
2021/10/22 23:16:16;;;;;;;8.80;2.22;;;;;;;;;;10416532;28;20120;-79
2021/10/22 23:21:16;;;;;;;13.48;2.65;;;;;;;;;;10416721;28;20033;-80
2021/10/22 23:26:16;;;;;;;5.60;2.15;;;;;;;;;;10413970;28;20127;-79
2021/10/22 23:31:16;;;;;;;2.42;1.70;;;;;;;;;;10415711;28;20048;-78
2021/10/22 23:36:17;;;;;;;2.38;1.58;;;;;;;;;;10416744;28;20029;-79
2021/10/22 23:41:17;;;;;;;3.83;2.40;;;;;;;;;;10416742;28;20036;-78
2021/10/22 23:46:17;;;;;;;13.23;2.97;;;;;;;;;;10400357;28;20110;-78
2021/10/22 23:51:17;;;;;;;7.05;2.70;;;;;;;;;;10433644;28;20033;-76
2021/10/22 23:56:18;;;;;;;5.57;2.78;;;;;;;;;;10451275;28;20037;-77
